createdAt,value
2018-09-28T00:00:06.991Z,69.76
2018-09-28T00:01:06.986Z,69.8
2018-09-28T00:02:07.191Z,70.26
2018-09-28T00:03:06.852Z,70.7
2018-09-28T00:04:06.956Z,70.31
2018-09-28T00:05:06.815Z,69.74
2018-09-28T00:06:06.791Z,69.89
2018-09-28T00:07:07.122Z,70.41
2018-09-28T00:08:07.010Z,70.05
2018-09-28T00:09:06.963Z,69.57
2018-09-28T00:10:07.032Z,69.62
2018-09-28T00:11:07.019Z,69.66
2018-09-28T00:12:07.064Z,69.53
2018-09-28T00:13:07.065Z,69.87
2018-09-28T00:14:06.953Z,70.04
2018-09-28T00:15:07.112Z,70.29
2018-09-28T00:16:06.981Z,70.22
2018-09-28T00:17:06.819Z,70.66
2018-09-28T00:18:07.020Z,70.88
2018-09-28T00:19:06.780Z,70.36
2018-09-28T00:20:07.157Z,70.08
2018-09-28T00:21:06.978Z,70.52
2018-09-28T00:22:07.123Z,71.4
2018-09-28T00:23:07.294Z,71.13
2018-09-28T00:24:06.990Z,71.21
2018-09-28T00:25:06.948Z,71.08
2018-09-28T00:26:07.603Z,70.95
2018-09-28T00:27:07.012Z,71.14
2018-09-28T00:28:06.822Z,71.37
2018-09-28T00:29:06.763Z,70.46
2018-09-28T00:30:06.778Z,70.33
2018-09-28T00:31:06.918Z,70.65
2018-09-28T00:32:06.877Z,70.98
2018-09-28T00:33:06.978Z,70.7
2018-09-28T00:34:07.316Z,71
2018-09-28T00:35:07.058Z,70.3
2018-09-28T00:36:06.922Z,71.18
2018-09-28T00:37:06.980Z,70.64
2018-09-28T00:38:07.193Z,70.63
2018-09-28T00:39:06.869Z,70.21
2018-09-28T00:40:07.305Z,70.02
2018-09-28T00:41:07.093Z,70.79
2018-09-28T00:42:06.816Z,71.08
2018-09-28T00:43:06.795Z,70.66
2018-09-28T00:44:07.023Z,70.8
2018-09-28T00:45:06.775Z,71.2
2018-09-28T00:46:06.862Z,70.85
2018-09-28T00:47:06.915Z,70.81
2018-09-28T00:48:07.031Z,70.55
2018-09-28T00:49:07.028Z,70.72
2018-09-28T00:50:06.800Z,70.95
2018-09-28T00:51:06.944Z,70.65
2018-09-28T00:52:07.017Z,71.04
2018-09-28T00:53:07.097Z,70.82
2018-09-28T00:54:06.938Z,71.4
2018-09-28T00:55:07.091Z,70.73
2018-09-28T00:56:06.851Z,71.47
2018-09-28T00:57:07.093Z,71.54
2018-09-28T00:58:06.996Z,71.45
2018-09-28T00:59:07.026Z,70.96
2018-09-28T01:00:06.905Z,70.97
2018-09-28T01:01:06.928Z,71.56
2018-09-28T01:02:06.871Z,71.38
2018-09-28T01:03:06.918Z,71.45
2018-09-28T01:04:06.745Z,71.7
2018-09-28T01:05:06.893Z,71.31
2018-09-28T01:06:06.920Z,70.9
2018-09-28T01:07:07.099Z,70.84
2018-09-28T01:08:06.714Z,71.46
2018-09-28T01:09:06.697Z,70.72
2018-09-28T01:10:06.698Z,70.53
2018-09-28T01:11:06.943Z,71.58
2018-09-28T01:12:06.938Z,71.95
2018-09-28T01:13:06.860Z,71.92
2018-09-28T01:14:06.862Z,72.05
2018-09-28T01:15:07.222Z,71.82
2018-09-28T01:16:06.689Z,72.34
2018-09-28T01:17:06.756Z,72.35
2018-09-28T01:18:06.907Z,72.4
2018-09-28T01:19:06.698Z,72.68
2018-09-28T01:20:06.868Z,72.87
2018-09-28T01:21:06.904Z,73.09
2018-09-28T01:22:06.733Z,72.57
2018-09-28T01:23:06.833Z,72.44
2018-09-28T01:24:07.067Z,72.94
2018-09-28T01:25:06.871Z,72.55
2018-09-28T01:26:06.686Z,72.39
2018-09-28T01:27:06.836Z,72.28
2018-09-28T01:28:06.740Z,72.16
2018-09-28T01:29:06.853Z,71.61
2018-09-28T01:30:06.663Z,72.81
2018-09-28T01:31:06.864Z,72.36
2018-09-28T01:32:06.854Z,72.32
2018-09-28T01:33:06.675Z,71.43
2018-09-28T01:34:06.837Z,71.48
2018-09-28T01:35:06.915Z,72.89
2018-09-28T01:36:07.136Z,72.72
2018-09-28T01:37:06.861Z,72.33
2018-09-28T01:38:07.001Z,73.07
2018-09-28T01:39:06.713Z,72.54
2018-09-28T01:40:06.679Z,72.77
2018-09-28T01:41:06.695Z,72.68
2018-09-28T01:42:07.249Z,72.94
2018-09-28T01:43:06.907Z,72.84
2018-09-28T01:44:06.899Z,73.04
2018-09-28T01:45:07.038Z,72.87
2018-09-28T01:46:06.706Z,73.21
2018-09-28T01:47:06.850Z,73.35
2018-09-28T01:48:07.082Z,72.73
2018-09-28T01:49:06.770Z,73.47
2018-09-28T01:50:06.817Z,73.48
2018-09-28T01:51:07.071Z,73.63
2018-09-28T01:52:07.028Z,73.76
2018-09-28T01:53:06.682Z,73.21
2018-09-28T01:54:06.752Z,73.43
2018-09-28T01:55:06.847Z,73.75
2018-09-28T01:56:06.666Z,73.15
2018-09-28T01:57:06.769Z,72.72
2018-09-28T01:58:06.811Z,72.43
2018-09-28T01:59:06.677Z,73.43
2018-09-28T02:00:06.822Z,73.08
2018-09-28T02:01:06.682Z,73.35
2018-09-28T02:02:07.079Z,72.94
2018-09-28T02:03:06.881Z,72.42
2018-09-28T02:04:06.941Z,72.96
2018-09-28T02:05:07.016Z,72.97
2018-09-28T02:06:07.183Z,73.22
2018-09-28T02:07:07.152Z,73.04
2018-09-28T02:08:06.834Z,73.63
2018-09-28T02:09:06.903Z,73.15
2018-09-28T02:10:06.674Z,73.36
2018-09-28T02:11:06.878Z,72.66
2018-09-28T02:12:06.601Z,72.95
2018-09-28T02:13:06.790Z,73.52
2018-09-28T02:14:07.170Z,73.06
2018-09-28T02:15:06.999Z,73.13
2018-09-28T02:16:07.110Z,72.98
2018-09-28T02:17:06.714Z,72.68
2018-09-28T02:18:06.652Z,73.7
2018-09-28T02:19:06.823Z,74.34
2018-09-28T02:20:06.893Z,73.78
2018-09-28T02:21:06.910Z,73.89
2018-09-28T02:22:07.048Z,73.35
2018-09-28T02:23:06.708Z,73.85
2018-09-28T02:24:06.694Z,73.53
2018-09-28T02:25:06.642Z,73.45
2018-09-28T02:26:06.675Z,73.46
2018-09-28T02:27:06.747Z,73.86
2018-09-28T02:28:06.678Z,73.23
2018-09-28T02:29:06.651Z,74.08
2018-09-28T02:30:06.638Z,74.61
2018-09-28T02:31:06.880Z,74.86
2018-09-28T02:32:07.018Z,74.42
2018-09-28T02:33:06.778Z,73.88
2018-09-28T02:34:06.732Z,73.77
2018-09-28T02:35:06.694Z,73.94
2018-09-28T02:36:06.809Z,74.58
2018-09-28T02:37:06.722Z,74.78
2018-09-28T02:38:06.623Z,74.52
2018-09-28T02:39:06.870Z,74.66
2018-09-28T02:40:07.062Z,74.48
2018-09-28T02:41:06.794Z,74.56
2018-09-28T02:42:06.779Z,75.07
2018-09-28T02:43:06.816Z,74.5
2018-09-28T02:44:06.776Z,73.89
2018-09-28T02:45:06.738Z,73.77
2018-09-28T02:46:06.613Z,73.59
2018-09-28T02:47:06.643Z,74.16
2018-09-28T02:48:06.619Z,73.86
2018-09-28T02:49:06.734Z,74.01
2018-09-28T02:50:06.607Z,73.63
2018-09-28T02:51:06.750Z,73.77
2018-09-28T02:52:06.752Z,73.2
2018-09-28T02:53:06.725Z,73.1
2018-09-28T02:54:06.738Z,73.04
2018-09-28T02:55:06.604Z,73.47
2018-09-28T02:56:06.748Z,72.92
2018-09-28T02:57:07.001Z,73.41
2018-09-28T02:58:06.762Z,73.84
2018-09-28T02:59:06.594Z,73.49
2018-09-28T03:00:06.807Z,74
2018-09-28T03:01:06.601Z,74.35
2018-09-28T03:02:06.589Z,74.5
2018-09-28T03:03:06.862Z,74.7
2018-09-28T03:04:06.867Z,74.13
2018-09-28T03:05:06.741Z,74.75
2018-09-28T03:06:07.062Z,74.35
2018-09-28T03:07:06.716Z,73.86
2018-09-28T03:08:06.623Z,74.06
2018-09-28T03:09:06.788Z,74
2018-09-28T03:10:06.591Z,74.38
2018-09-28T03:11:06.958Z,74.63
2018-09-28T03:12:06.552Z,74.06
2018-09-28T03:13:06.823Z,74.75
2018-09-28T03:14:06.887Z,75.05
2018-09-28T03:15:06.697Z,74.58
2018-09-28T03:16:06.681Z,74.92
2018-09-28T03:17:06.675Z,74.09
2018-09-28T03:18:06.564Z,73.84
2018-09-28T03:19:06.612Z,74.37
2018-09-28T03:20:06.813Z,74.62
2018-09-28T03:21:06.534Z,74.83
2018-09-28T03:22:06.650Z,75.18
2018-09-28T03:23:06.741Z,74.71
2018-09-28T03:24:06.628Z,75.22
2018-09-28T03:25:06.717Z,74.81
2018-09-28T03:26:06.561Z,75.03
2018-09-28T03:27:06.547Z,74.89
2018-09-28T03:28:06.714Z,74.4
2018-09-28T03:29:06.726Z,74.34
2018-09-28T03:30:06.747Z,74.41
2018-09-28T03:31:06.679Z,74.45
2018-09-28T03:32:06.808Z,74.61
2018-09-28T03:33:06.778Z,74.76
2018-09-28T03:34:06.664Z,74.36
2018-09-28T03:35:06.668Z,74.58
2018-09-28T03:36:06.742Z,75.04
2018-09-28T03:37:06.630Z,75.34
2018-09-28T03:38:06.659Z,75.47
2018-09-28T03:39:06.788Z,75.35
2018-09-28T03:40:06.770Z,75.1
2018-09-28T03:41:06.682Z,74.59
2018-09-28T03:42:06.708Z,74.74
2018-09-28T03:43:06.570Z,74.47
2018-09-28T03:44:07.000Z,74.65
2018-09-28T03:45:06.677Z,74.68
2018-09-28T03:46:06.517Z,75.31
2018-09-28T03:47:06.719Z,75.73
2018-09-28T03:48:06.687Z,75.32
2018-09-28T03:49:06.482Z,75.23
2018-09-28T03:50:06.690Z,75.53
2018-09-28T03:51:06.662Z,75.75
2018-09-28T03:52:06.728Z,75.45
2018-09-28T03:53:06.755Z,75.48
2018-09-28T03:54:06.790Z,75.15
2018-09-28T03:55:06.600Z,75.09
2018-09-28T03:56:06.715Z,75.02
2018-09-28T03:57:06.777Z,74.33
2018-09-28T03:58:06.836Z,75.5
2018-09-28T03:59:06.736Z,75.12
2018-09-28T04:00:06.861Z,75.83
2018-09-28T04:01:06.578Z,75.83
2018-09-28T04:02:06.482Z,75
2018-09-28T04:03:06.810Z,75.83
2018-09-28T04:04:07.029Z,75.75
2018-09-28T04:05:06.721Z,75.35
2018-09-28T04:06:06.845Z,75.54
2018-09-28T04:07:06.543Z,76.11
2018-09-28T04:08:06.657Z,75.77
2018-09-28T04:09:06.603Z,75.72
2018-09-28T04:10:06.461Z,75.87
2018-09-28T04:11:06.608Z,76.42
2018-09-28T04:12:06.556Z,76.48
2018-09-28T04:13:06.759Z,76.31
2018-09-28T04:14:06.753Z,76.69
2018-09-28T04:15:06.900Z,76.4
2018-09-28T04:16:06.593Z,76.62
2018-09-28T04:17:06.653Z,76.43
2018-09-28T04:18:06.628Z,76.62
2018-09-28T04:19:06.618Z,76.83
2018-09-28T04:20:06.673Z,76.9
2018-09-28T04:21:06.607Z,76.96
2018-09-28T04:22:07.306Z,76.69
2018-09-28T04:23:06.496Z,76.23
2018-09-28T04:24:06.636Z,76.59
2018-09-28T04:25:06.701Z,76.94
2018-09-28T04:26:06.486Z,77.49
2018-09-28T04:27:06.465Z,77.33
2018-09-28T04:28:06.483Z,77.47
2018-09-28T04:29:06.577Z,77.17
2018-09-28T04:30:06.432Z,76.58
2018-09-28T04:31:06.596Z,76.91
2018-09-28T04:32:06.705Z,76.41
2018-09-28T04:33:06.608Z,76.71
2018-09-28T04:34:06.879Z,76.69
2018-09-28T04:35:06.463Z,76.22
2018-09-28T04:36:06.713Z,76.64
2018-09-28T04:37:06.752Z,76.59
2018-09-28T04:38:06.712Z,76.52
2018-09-28T04:39:06.744Z,76.64
2018-09-28T04:40:06.726Z,76.61
2018-09-28T04:41:08.034Z,76.21
2018-09-28T04:42:06.641Z,75.93
2018-09-28T04:43:06.820Z,76.72
2018-09-28T04:44:06.697Z,76.65
2018-09-28T04:45:06.751Z,76.53
2018-09-28T04:46:06.647Z,76.7
2018-09-28T04:47:06.756Z,76.63
2018-09-28T04:48:06.624Z,76.08
2018-09-28T04:49:09.212Z,76.18
2018-09-28T04:50:06.805Z,75.97
2018-09-28T04:51:06.608Z,76.3
2018-09-28T04:52:06.683Z,76.83
2018-09-28T04:53:42.111Z,76.32
2018-09-28T04:54:06.556Z,76.13
2018-09-28T04:55:06.948Z,76.77
2018-09-28T04:56:06.711Z,76.8
2018-09-28T04:57:07.299Z,76.5
2018-09-28T04:58:06.490Z,76.24
2018-09-28T04:59:06.556Z,76.68
2018-09-28T05:00:06.618Z,76.53
2018-09-28T05:01:06.658Z,75.96
2018-09-28T05:02:06.618Z,76.29
2018-09-28T05:03:06.509Z,76.19
2018-09-28T05:04:06.535Z,76.12
2018-09-28T05:05:06.567Z,76.12
2018-09-28T05:06:06.614Z,75.96
2018-09-28T05:07:06.718Z,75.96
2018-09-28T05:08:06.630Z,75.95
2018-09-28T05:09:07.032Z,76.21
2018-09-28T05:10:06.701Z,76.25
2018-09-28T05:11:06.686Z,75.84
2018-09-28T05:12:06.716Z,76.37
2018-09-28T05:13:07.131Z,76.72
2018-09-28T05:14:06.766Z,76.56
2018-09-28T05:15:06.572Z,77.12
2018-09-28T05:16:06.576Z,76.59
2018-09-28T05:17:06.653Z,76.45
2018-09-28T05:18:06.453Z,76.1
2018-09-28T05:19:06.563Z,76.67
2018-09-28T05:20:06.645Z,76.65
2018-09-28T05:21:06.856Z,76.63
2018-09-28T05:22:07.821Z,77
2018-09-28T05:23:06.597Z,76.53
2018-09-28T05:24:06.623Z,75.97
2018-09-28T05:25:06.695Z,76.44
2018-09-28T05:26:06.654Z,76.7
2018-09-28T05:27:07.098Z,76.44
2018-09-28T05:28:06.664Z,76.18
2018-09-28T05:29:06.738Z,76.47
2018-09-28T05:30:06.612Z,76.01
2018-09-28T05:31:06.849Z,76.85
2018-09-28T05:32:07.212Z,76.83
2018-09-28T05:33:07.145Z,76.8
2018-09-28T05:34:06.638Z,76.78
2018-09-28T05:35:06.372Z,76.94
2018-09-28T05:36:06.723Z,76.78
2018-09-28T05:37:06.562Z,76.48
2018-09-28T05:38:06.733Z,76.04
2018-09-28T05:39:06.432Z,76.41
2018-09-28T05:40:06.673Z,76.4
2018-09-28T05:41:06.617Z,76.22
2018-09-28T05:42:06.763Z,76.54
2018-09-28T05:43:06.514Z,76.75
2018-09-28T05:44:06.521Z,76.48
2018-09-28T05:45:06.369Z,76.67
2018-09-28T05:46:06.546Z,76.68
2018-09-28T05:47:06.560Z,76.58
2018-09-28T05:48:06.360Z,77
2018-09-28T05:49:06.574Z,76.62
2018-09-28T05:50:06.675Z,76.46
2018-09-28T05:51:06.513Z,76.37
2018-09-28T05:52:06.492Z,76.19
2018-09-28T05:53:06.526Z,76.59
2018-09-28T05:54:06.371Z,76.46
2018-09-28T05:55:06.502Z,76.62
2018-09-28T05:56:06.313Z,76.38
2018-09-28T05:57:06.490Z,76.18
2018-09-28T05:58:06.467Z,76.38
2018-09-28T05:59:06.475Z,76.38
2018-09-28T06:00:07.326Z,76.34
2018-09-28T06:01:06.479Z,76.25
2018-09-28T06:02:06.544Z,76.26
2018-09-28T06:03:06.321Z,76.15
2018-09-28T06:04:06.524Z,76.59
2018-09-28T06:05:06.363Z,76.96
2018-09-28T06:06:06.471Z,76.52
2018-09-28T06:07:06.566Z,76.78
2018-09-28T06:08:06.549Z,76.38
2018-09-28T06:09:06.489Z,76.31
2018-09-28T06:10:06.479Z,76.03
2018-09-28T06:11:06.389Z,76.01
2018-09-28T06:12:06.562Z,77.07
2018-09-28T06:13:06.491Z,77.41
2018-09-28T06:14:06.747Z,77.19
2018-09-28T06:15:06.397Z,76.71
2018-09-28T06:16:06.693Z,77.06
2018-09-28T06:17:06.546Z,76.6
2018-09-28T06:18:06.297Z,76.85
2018-09-28T06:19:06.430Z,76.94
2018-09-28T06:20:06.546Z,76.96
2018-09-28T06:21:06.452Z,77.11
2018-09-28T06:22:06.603Z,76.41
2018-09-28T06:23:06.359Z,76.7
2018-09-28T06:24:06.619Z,76.59
2018-09-28T06:25:06.297Z,77.53
2018-09-28T06:26:06.304Z,77.33
2018-09-28T06:27:06.285Z,77.07
2018-09-28T06:28:06.427Z,77.78
2018-09-28T06:29:06.407Z,77.38
2018-09-28T06:30:06.697Z,78.04
2018-09-28T06:31:06.312Z,77.27
2018-09-28T06:32:06.628Z,77.91
2018-09-28T06:33:06.532Z,77.49
2018-09-28T06:34:06.364Z,76.97
2018-09-28T06:35:06.544Z,76.71
2018-09-28T06:36:06.767Z,76.9
2018-09-28T06:37:06.494Z,76.45
2018-09-28T06:38:06.612Z,77.22
2018-09-28T06:39:06.277Z,76.48
2018-09-28T06:40:06.705Z,77.57
2018-09-28T06:41:06.452Z,77.15
2018-09-28T06:42:07.146Z,77.94
2018-09-28T06:43:06.652Z,77.74
2018-09-28T06:44:06.761Z,77.46
2018-09-28T06:45:06.553Z,77.13
2018-09-28T06:46:06.478Z,77.39
2018-09-28T06:47:06.570Z,77.86
2018-09-28T06:48:06.618Z,77.62
2018-09-28T06:49:06.406Z,77.97
2018-09-28T06:50:06.452Z,78.03
2018-09-28T06:51:06.698Z,78.22
2018-09-28T06:52:06.556Z,77.76
2018-09-28T06:53:06.257Z,77.78
2018-09-28T06:54:06.508Z,78.02
2018-09-28T06:55:06.293Z,78.53
2018-09-28T06:56:06.580Z,78.43
2018-09-28T06:57:06.793Z,78.27
2018-09-28T06:58:06.920Z,78.25
2018-09-28T06:59:06.379Z,77.84
2018-09-28T07:00:06.792Z,78.35
2018-09-28T07:01:06.543Z,78.64
2018-09-28T07:02:06.450Z,78.85
2018-09-28T07:03:06.446Z,79.2
2018-09-28T07:04:06.574Z,79.25
2018-09-28T07:05:06.479Z,79.28
2018-09-28T07:06:06.488Z,79.28
2018-09-28T07:07:06.342Z,79.09
2018-09-28T07:08:06.404Z,78.25
2018-09-28T07:09:06.409Z,77.85
2018-09-28T07:10:06.454Z,77.61
2018-09-28T07:11:06.619Z,78.67
2018-09-28T07:12:06.460Z,78.81
2018-09-28T07:13:06.398Z,78.73
2018-09-28T07:14:06.264Z,78.79
2018-09-28T07:15:06.272Z,78.62
2018-09-28T07:16:06.540Z,78.68
2018-09-28T07:17:06.451Z,78.52
2018-09-28T07:18:06.560Z,78.41
2018-09-28T07:19:06.215Z,78.37
2018-09-28T07:20:06.628Z,78.38
2018-09-28T07:21:06.496Z,78.9
2018-09-28T07:22:06.195Z,79.09
2018-09-28T07:23:06.240Z,79.29
2018-09-28T07:24:06.657Z,78.92
2018-09-28T07:25:06.589Z,78.67
2018-09-28T07:26:06.478Z,78.52
2018-09-28T07:27:06.414Z,78.81
2018-09-28T07:28:06.360Z,78.79
2018-09-28T07:29:06.410Z,78.8
2018-09-28T07:30:06.737Z,79.05
2018-09-28T07:31:06.492Z,79.65
2018-09-28T07:32:07.209Z,78.99
2018-09-28T07:33:06.245Z,78.68
2018-09-28T07:34:06.815Z,78.32
2018-09-28T07:35:06.417Z,79.13
2018-09-28T07:36:07.673Z,79.4
2018-09-28T07:37:07.808Z,79.66
2018-09-28T07:38:06.531Z,79.44
2018-09-28T07:39:06.265Z,78.63
2018-09-28T07:40:06.211Z,79
2018-09-28T07:41:06.234Z,78.96
2018-09-28T07:42:06.797Z,78.8
2018-09-28T07:43:06.353Z,78.77
2018-09-28T07:44:06.217Z,78.22
2018-09-28T07:45:06.478Z,78.12
2018-09-28T07:46:06.244Z,78.48
2018-09-28T07:47:06.720Z,78.47
2018-09-28T07:48:06.843Z,78.43
2018-09-28T07:49:06.492Z,78.33
2018-09-28T07:50:06.446Z,78.64
2018-09-28T07:51:06.713Z,78.7
2018-09-28T07:52:06.227Z,78.62
2018-09-28T07:53:06.420Z,78.37
2018-09-28T07:54:06.528Z,77.8
2018-09-28T07:55:06.411Z,78.41
2018-09-28T07:56:06.345Z,78.54
2018-09-28T07:57:06.417Z,78.53
2018-09-28T07:58:06.614Z,78.36
2018-09-28T07:59:06.321Z,78.28
2018-09-28T08:00:06.441Z,78.12
2018-09-28T08:01:06.310Z,78.11
2018-09-28T08:02:06.223Z,78.04
2018-09-28T08:03:06.183Z,77.88
2018-09-28T08:04:06.302Z,77.98
2018-09-28T08:05:06.375Z,77.8
2018-09-28T08:06:06.303Z,77.45
2018-09-28T08:07:06.323Z,77.64
2018-09-28T08:08:06.567Z,77.74
2018-09-28T08:09:06.378Z,77.34
2018-09-28T08:10:06.397Z,77.77
2018-09-28T08:11:06.179Z,77.54
2018-09-28T08:12:06.379Z,77.04
2018-09-28T08:13:06.147Z,77.19
2018-09-28T08:14:06.361Z,77.09
2018-09-28T08:15:06.399Z,76.54
2018-09-28T08:16:06.180Z,76.65
2018-09-28T08:17:06.423Z,77.11
2018-09-28T08:18:06.367Z,76.83
2018-09-28T08:19:06.405Z,76.68
2018-09-28T08:20:06.445Z,76.49
2018-09-28T08:31:24.232Z,73.86
2018-09-28T08:32:24.346Z,73.94
2018-09-28T08:33:24.156Z,73.56
2018-09-28T08:34:24.159Z,73.13
2018-09-28T08:35:24.295Z,72.98
2018-09-28T08:36:24.551Z,72.59
2018-09-28T08:37:24.136Z,72.78
2018-09-28T08:38:24.091Z,72.39
2018-09-28T08:39:24.159Z,72.41
2018-09-28T08:40:24.132Z,71.82
2018-09-28T08:41:24.095Z,72.14
2018-09-28T08:42:24.115Z,72.06
2018-09-28T08:43:24.118Z,71.62
2018-09-28T08:44:24.093Z,71.53
2018-09-28T08:45:24.106Z,71.76
2018-09-28T08:46:24.177Z,72.08
2018-09-28T08:47:24.081Z,72.17
2018-09-28T08:48:24.158Z,72.35
2018-09-28T08:49:24.095Z,72.26
2018-09-28T08:50:24.060Z,72.45
2018-09-28T08:51:24.069Z,72.21
2018-09-28T08:52:25.275Z,71.96
2018-09-28T08:53:24.182Z,71.85
2018-09-28T08:54:24.233Z,71.94
2018-09-28T08:55:24.473Z,71.77
2018-09-28T08:56:24.105Z,72.21
2018-09-28T08:58:25.047Z,71.98
2018-09-28T08:59:24.166Z,71.67
2018-09-28T09:00:24.309Z,71.07
2018-09-28T09:01:24.120Z,70.92
2018-09-28T09:02:24.146Z,70.63
2018-09-28T09:03:24.298Z,70.48
2018-09-28T09:04:24.296Z,70.62
2018-09-28T09:05:24.229Z,70.31
2018-09-28T09:06:24.163Z,70.5
2018-09-28T09:07:24.316Z,70.05
2018-09-28T09:08:24.229Z,70.02
2018-09-28T09:09:24.204Z,70.23
2018-09-28T09:10:24.029Z,70.01
2018-09-28T09:11:24.075Z,69.9
2018-09-28T09:12:24.096Z,70.22
2018-09-28T09:13:24.356Z,70.4
2018-09-28T09:14:24.137Z,69
2018-09-28T09:15:24.457Z,69.06
2018-09-28T09:16:24.239Z,69.44
2018-09-28T09:17:24.129Z,69.46
2018-09-28T09:18:24.383Z,69.07
2018-09-28T09:19:23.992Z,69.31
2018-09-28T09:20:24.128Z,69.92
2018-09-28T09:21:24.102Z,69.16
2018-09-28T09:22:24.144Z,68.98
2018-09-28T09:23:24.197Z,68.59
2018-09-28T09:24:24.275Z,68.44
2018-09-28T09:25:24.070Z,68.03
2018-09-28T09:26:24.194Z,68.35
2018-09-28T09:27:24.257Z,68.46
2018-09-28T09:28:24.108Z,68.55
2018-09-28T09:29:24.309Z,68.04
2018-09-28T09:30:24.126Z,67.49
2018-09-28T09:31:23.984Z,67.83
2018-09-28T09:32:24.114Z,66.69
2018-09-28T09:33:24.258Z,66.25
2018-09-28T09:34:24.127Z,66.3
2018-09-28T09:35:24.299Z,66.29
2018-09-28T09:36:24.264Z,66.52
2018-09-28T09:37:24.037Z,66.18
2018-09-28T09:38:24.076Z,66.25
2018-09-28T09:39:24.012Z,66.06
2018-09-28T09:40:24.079Z,66.05
2018-09-28T09:41:23.964Z,66.32
2018-09-28T09:42:25.110Z,66.4
2018-09-28T09:43:24.334Z,67.06
2018-09-28T09:44:24.159Z,67.3
2018-09-28T09:45:24.002Z,67.03
2018-09-28T09:46:24.135Z,65.3
2018-09-28T09:47:24.029Z,64.35
2018-09-28T09:48:24.213Z,64.7
2018-09-28T09:49:24.113Z,63.84
2018-09-28T09:50:24.090Z,64.11
2018-09-28T09:51:24.055Z,63.87
2018-09-28T09:52:23.984Z,64.12
2018-09-28T09:53:24.065Z,64.18
2018-09-28T09:54:24.134Z,64.2
2018-09-28T09:55:23.997Z,64.58
2018-09-28T09:56:23.965Z,63.95
2018-09-28T09:57:24.076Z,63.39
2018-09-28T09:58:24.016Z,63.99
2018-09-28T09:59:24.075Z,62.96
2018-09-28T10:00:24.229Z,63.6
2018-09-28T10:01:23.996Z,63.16
2018-09-28T10:02:24.028Z,63.25
2018-09-28T10:03:24.270Z,62.95
2018-09-28T10:04:24.024Z,62.65
2018-09-28T10:05:23.999Z,62.32
2018-09-28T10:06:24.163Z,61.95
2018-09-28T10:07:24.044Z,61.74
2018-09-28T10:08:23.945Z,61.6
2018-09-28T10:09:25.423Z,61.42
2018-09-28T10:10:23.979Z,61.7
2018-09-28T10:11:23.910Z,61.39
2018-09-28T10:12:25.631Z,60.72
2018-09-28T10:13:23.928Z,60.95
2018-09-28T10:14:24.230Z,60.46
2018-09-28T10:15:23.912Z,60.74
2018-09-28T10:16:24.023Z,60.31
2018-09-28T10:17:24.027Z,60.53
2018-09-28T10:18:23.900Z,60.39
2018-09-28T10:19:24.623Z,60.4
2018-09-28T10:20:23.986Z,60.38
2018-09-28T10:21:24.033Z,60.35
2018-09-28T10:22:23.910Z,60.15
2018-09-28T10:23:23.918Z,59.73
2018-09-28T10:24:24.394Z,60.07
2018-09-28T10:25:24.000Z,59.69
2018-09-28T10:26:24.059Z,59.22
2018-09-28T10:27:24.653Z,59.77
2018-09-28T10:28:24.427Z,59.05
2018-09-28T10:29:24.115Z,59.33
2018-09-28T10:30:24.121Z,58.89
2018-09-28T10:31:23.951Z,58.43
2018-09-28T10:32:23.985Z,58.65
2018-09-28T10:33:24.053Z,58.46
2018-09-28T10:34:24.491Z,58.62
2018-09-28T10:35:24.064Z,58.26
2018-09-28T10:36:24.189Z,57.77
2018-09-28T10:37:24.073Z,57.88
2018-09-28T10:38:23.998Z,57.92
2018-09-28T10:39:24.581Z,57.62
2018-09-28T10:40:24.703Z,57.23
2018-09-28T10:41:23.897Z,57.65
2018-09-28T10:42:24.115Z,57.73
2018-09-28T10:43:24.024Z,57.54
2018-09-28T10:44:23.914Z,57.96
2018-09-28T10:45:24.643Z,57.51
2018-09-28T10:46:24.323Z,57.46
2018-09-28T10:47:24.051Z,57.14
2018-09-28T10:48:23.985Z,57.16
2018-09-28T10:49:24.242Z,56.91
2018-09-28T10:50:24.163Z,56.84
2018-09-28T10:51:24.305Z,56.77
2018-09-28T10:52:25.745Z,56.74
2018-09-28T10:53:23.976Z,56.81
2018-09-28T10:55:03.717Z,56.39
2018-09-28T10:56:03.602Z,56.45
2018-09-28T10:57:48.506Z,55.76
2018-09-28T10:58:49.247Z,55.38
2018-09-28T10:59:48.599Z,55.13
2018-09-28T11:00:48.403Z,54.84
2018-09-28T11:01:48.904Z,55.09
2018-09-28T11:02:48.467Z,54.87
2018-09-28T11:03:50.491Z,54.89
2018-09-28T11:05:48.489Z,54.94
2018-09-28T11:06:49.606Z,55.05
2018-09-28T11:07:48.442Z,54.51
2018-09-28T11:08:48.520Z,54.52
2018-09-28T11:09:51.782Z,54.07
2018-09-28T11:10:48.805Z,53.63
2018-09-28T11:11:48.335Z,53.64
2018-09-28T11:12:48.353Z,53.45
2018-09-28T11:13:48.392Z,53.77
2018-09-28T11:14:48.388Z,52.99
2018-09-28T11:15:48.820Z,53.38
2018-09-28T11:16:48.229Z,53.11
2018-09-28T11:17:48.441Z,52.84
2018-09-28T11:18:48.775Z,53.28
2018-09-28T11:19:48.330Z,53.11
2018-09-28T11:20:48.463Z,52.48
2018-09-28T11:21:49.189Z,52.51
2018-09-28T11:22:48.454Z,52.06
2018-09-28T11:23:48.609Z,52.61
2018-09-28T11:24:48.568Z,52.32
2018-09-28T11:25:48.662Z,51.64
2018-09-28T11:26:48.463Z,51.78
2018-09-28T11:27:48.953Z,52.1
2018-09-28T11:28:48.502Z,52.1
2018-09-28T11:29:48.504Z,51.36
2018-09-28T11:30:48.428Z,51.57
2018-09-28T11:31:48.434Z,50.81
2018-09-28T11:32:48.550Z,50.37
2018-09-28T11:33:49.052Z,50.67
2018-09-28T11:34:48.454Z,50.62
2018-09-28T11:35:48.549Z,50.68
2018-09-28T11:36:48.465Z,50.51
2018-09-28T11:37:48.527Z,50.21
2018-09-28T11:38:48.323Z,49.63
2018-09-28T11:39:49.011Z,49.92
2018-09-28T11:40:48.403Z,49.87
2018-09-28T11:41:48.539Z,49.6
2018-09-28T11:42:48.719Z,49.18
2018-09-28T11:43:48.617Z,49.06
2018-09-28T11:44:48.513Z,48.74
2018-09-28T11:45:49.158Z,48.86
2018-09-28T11:46:48.413Z,48.92
2018-09-28T11:47:48.323Z,48.64
2018-09-28T11:48:48.450Z,49
2018-09-28T11:49:48.390Z,48.39
2018-09-28T11:50:48.373Z,48.66
2018-09-28T11:51:48.796Z,48.58
2018-09-28T11:52:48.451Z,47.95
2018-09-28T11:53:48.496Z,46.75
2018-09-28T11:54:48.263Z,47.23
2018-09-28T11:55:48.684Z,45.62
2018-09-28T11:56:48.366Z,45.36
2018-09-28T11:57:48.539Z,45.05
2018-09-28T11:58:48.492Z,45.72
2018-09-28T11:59:48.298Z,45.03
2018-09-28T12:00:48.623Z,45.39
2018-09-28T12:01:48.299Z,45.64
2018-09-28T12:02:48.276Z,45.82
2018-09-28T12:03:48.780Z,46.28
2018-09-28T12:04:48.261Z,46.76
2018-09-28T12:05:48.247Z,46.24
2018-09-28T12:06:49.158Z,45.29
2018-09-28T12:07:48.390Z,45.07
2018-09-28T12:08:48.204Z,44.39
2018-09-28T12:09:48.859Z,44.38
2018-09-28T12:10:48.466Z,43.7
2018-09-28T12:11:48.211Z,43.82
2018-09-28T12:12:49.089Z,44
2018-09-28T12:13:48.713Z,44.06
2018-09-28T12:14:48.583Z,44.14
2018-09-28T12:15:48.800Z,43.63
2018-09-28T12:16:48.324Z,43.67
2018-09-28T12:17:48.240Z,43.44
2018-09-28T12:18:48.816Z,42.81
2018-09-28T12:19:48.379Z,42.33
2018-09-28T12:20:48.273Z,42.72
2018-09-28T12:21:48.796Z,43
2018-09-28T12:22:48.367Z,42.85
2018-09-28T12:23:48.288Z,43.25
2018-09-28T12:24:48.861Z,43.92
2018-09-28T12:25:48.319Z,43.6
2018-09-28T12:26:48.268Z,42.26
2018-09-28T12:27:48.819Z,42.07
2018-09-28T12:28:48.276Z,42.7
2018-09-28T12:29:48.233Z,41.66
2018-09-28T12:30:48.757Z,41.45
2018-09-28T12:31:48.310Z,40.29
2018-09-28T12:32:48.268Z,40.11
2018-09-28T12:33:49.161Z,40.8
2018-09-28T12:34:48.240Z,41.33
2018-09-28T12:35:48.184Z,41.13
2018-09-28T12:36:48.631Z,41.57
2018-09-28T12:37:48.523Z,41.3
2018-09-28T12:38:48.177Z,39.44
2018-09-28T12:39:49.243Z,39.45
2018-09-28T12:40:48.190Z,39.06
2018-09-28T12:41:48.240Z,38.33
2018-09-28T12:42:48.709Z,38.07
2018-09-28T12:43:48.397Z,38.95
2018-09-28T12:44:48.655Z,39.58
2018-09-28T12:45:48.334Z,40.39
2018-09-28T12:46:48.196Z,40.47
2018-09-28T12:47:48.232Z,41.06
2018-09-28T12:48:48.773Z,40.48
2018-09-28T12:49:48.346Z,40.02
2018-09-28T12:50:48.739Z,41.55
2018-09-28T12:51:48.423Z,41.09
2018-09-28T12:52:48.212Z,40.7
2018-09-28T12:53:48.810Z,40.74
2018-09-28T12:54:48.535Z,40.68
2018-09-28T12:55:48.293Z,40.37
2018-09-28T12:56:48.504Z,40.21
2018-09-28T12:57:48.307Z,40.19
2018-09-28T12:58:48.205Z,40.22
2018-09-28T12:59:48.190Z,39.95
2018-09-28T13:00:49.077Z,40.62
2018-09-28T13:01:48.322Z,41.09
2018-09-28T13:02:48.953Z,40.57
2018-09-28T13:03:48.616Z,41.16
2018-09-28T13:04:48.307Z,40.86
2018-09-28T13:05:48.143Z,40.94
2018-09-28T13:06:48.923Z,40.75
2018-09-28T13:07:48.179Z,40.9
2018-09-28T13:08:48.817Z,41.39